Elfrida, AZ

2:38 AM MST on January 21, 2017 (GMT -0700)
1 Mile East of Elfrida | | Change Station
Active Advisory: Wind Advisory

Elev 4144 ft 31.68 °N, 109.67 °W | Updated 5 seconds ago

Rain
Rain
45.3 °F
Feels Like 36 °F
N
28.0
Wind Variable Wind from WSW
Gusts 30.0 mph

Today
High -- | Low -- °F
--% Chance of Precip.
Yesterday
High -- | Low -- °F
Precip. -- in
Pressure 29.47 in
Visibility 6.0 miles
Clouds Scattered Clouds 2800 ft
Overcast 3500 ft
Windchill 36 °F
Dew Point 45 °F
Humidity 97%
Rainfall 0.00 in
Snow Depth Not available.
7:17 AM 5:43 PM
Last Quarter, 36% visible
METAR KDUG 210856Z AUTO 19009KT 6SM RA BR SCT028 OVC035 07/07 A2956 RMK AO2 SLP980 P0008 60015 T00670067 58038
Pressure 29.47 in
Visibility 6.0 miles
Clouds Scattered Clouds 2800 ft
Overcast 3500 ft
Windchill 36 °F
Dew Point 45 °F
Humidity 97%
Rainfall 0.00 in
Snow Depth Not available.
7:17 AM 5:43 PM
Last Quarter, 36% visible
METAR KDUG 210856Z AUTO 19009KT 6SM RA BR SCT028 OVC035 07/07 A2956 RMK AO2 SLP980 P0008 60015 T00670067 58038

Get Your Daily Forecast Email!

Thanks for signing up!

Be on the lookout for a verification email in your inbox.

You'll start receiving the daily forecast at 8 AM.

×

10-Day Weather Forecast

Almanac

Astronomy

Jan. 21, 2017 Rise Set
Actual Time
Civil Twilight
Nautical Twilight
Astronomical Twilight
Moon
Length of Visible Light
Length of Day
Tomorrow will be .
, % of the Moon is Illuminated

Today's Extremes

State Highs State Lows

Community

WunderPhotos

Upload Photos

1,962,540 photos uploaded!

WunderBlog® & News

Nearby

Air Quality

  Air Quality AQ Index Pollutant
Not available.

Snow Depth

Station Depth Elevation

Earthquake Activity

City Distance Mag. Time & Date
Minimum magnitude displayed is 2.5.

Coastal Water Temperatures

Place Temperature

Stations

Nearby Weather Stations

Station Location Temp. Windchill Dew Point Humidity Wind Precip. Elev Updated Type
                   

Watches & Warnings

Wind Advisory
Issued: 10:23 PM MST Jan. 20, 2017 – National Weather Service

... Wind Advisory remains in effect until noon MST Saturday...

* impacts... high profile vehicles will be affected by the strong
gusty winds. Loose and unsecured outdoor objects may also be
blown away.

* Timing... peaking during the overnight hours through Saturday
morning.

* Winds... southwest wind 25 to 35 mph with gusts up to 50 mph.

* For a detailed view of the hazard area... visit
weather.Gov/Tucson and click on the detailed hazards tab

Precautionary/preparedness actions...

A Wind Advisory means that sustained winds of 30 mph or greater
are expected in the valleys... or 35 mph or greater above 5000
feet. Higher gusts are also likely. This could make driving
difficult... especially for high profile vehicles. Use extra caution.



Visit US on facebook... twitter... youtube... and at weather.Gov/Tucson